Time;durP1;ratioP1;P1;durP2;ratioP2;P2;SDS_P1;SDS_P2;PMS_P1;PMS_P2;Temp;Humidity;BMP_temperature;BMP_pressure;BME280_temperature;BME280_humidity;BME280_pressure;Samples;Min_cycle;Max_cycle;Signal;HPM_P1;HPM_P2
2021/01/10 00:00:41;;;;;;;45.25;19.50;;;;;;;0.25;73.10;99436.68;121394;1151;104459;-73
2021/01/10 00:03:13;;;;;;;39.40;17.23;;;;;;;0.29;72.60;99433.09;119767;1151;104350;-73
2021/01/10 00:05:42;;;;;;;38.97;18.37;;;;;;;0.25;72.76;99434.06;120000;1153;104455;-72
2021/01/10 00:08:16;;;;;;;40.10;18.63;;;;;;;0.29;72.58;99438.33;119873;1152;104477;-73
2021/01/10 00:10:43;;;;;;;40.73;18.40;;;;;;;0.29;72.81;99439.17;119756;1153;104473;-71
2021/01/10 00:13:10;;;;;;;41.27;18.33;;;;;;;0.35;72.97;99439.92;119814;1153;104435;-73
2021/01/10 00:15:39;;;;;;;36.90;17.47;;;;;;;0.37;72.81;99444.23;119846;1151;104467;-72
2021/01/10 00:18:07;;;;;;;42.00;18.83;;;;;;;0.35;72.59;99442.54;119821;1151;104458;-73
2021/01/10 00:20:35;;;;;;;41.57;19.33;;;;;;;0.32;72.75;99445.23;119935;1151;104445;-72
2021/01/10 00:23:03;;;;;;;40.90;18.37;;;;;;;0.30;72.62;99445.28;121151;1151;103194;-74
2021/01/10 00:25:31;;;;;;;36.13;16.47;;;;;;;0.28;72.70;99444.45;119859;1151;104561;-72
2021/01/10 00:27:59;;;;;;;41.30;17.77;;;;;;;0.26;72.62;99446.25;120037;1151;104449;-73
2021/01/10 00:30:26;;;;;;;42.00;19.00;;;;;;;0.27;72.65;99445.35;119891;1151;104420;-72
2021/01/10 00:32:56;;;;;;;41.90;19.25;;;;;;;0.27;72.91;99445.35;119893;1151;104429;-74
2021/01/10 00:35:26;;;;;;;40.63;18.87;;;;;;;0.25;72.77;99453.22;119848;1149;104455;-72
2021/01/10 00:37:57;;;;;;;43.83;20.10;;;;;;;0.24;72.80;99455.89;120908;1151;105761;-72
2021/01/10 00:40:29;;;;;;;38.70;19.30;;;;;;;0.25;72.40;99453.22;120533;1152;104329;-72
2021/01/10 00:42:56;;;;;;;37.40;17.40;;;;;;;0.22;72.75;99455.06;119836;1153;104422;-72
2021/01/10 00:45:23;;;;;;;42.70;20.30;;;;;;;0.21;72.60;99459.42;119876;1151;105083;-72
2021/01/10 00:47:53;;;;;;;41.33;19.03;;;;;;;0.23;72.55;99452.40;119929;1153;104359;-72
2021/01/10 00:50:20;;;;;;;46.20;22.20;;;;;;;0.25;72.85;99463.69;119822;1152;104489;-71
2021/01/10 00:52:48;;;;;;;43.30;20.27;;;;;;;0.26;72.48;99467.19;119832;1151;104852;-71
2021/01/10 00:55:16;;;;;;;38.63;16.27;;;;;;;0.25;73.02;99465.46;119796;1153;104460;-71
2021/01/10 00:57:43;;;;;;;38.03;18.30;;;;;;;0.25;72.72;99465.46;119940;1151;104377;-71
2021/01/10 01:00:13;;;;;;;43.75;19.70;;;;;;;0.26;72.80;99472.42;120896;1151;104515;-71
2021/01/10 01:02:40;;;;;;;44.80;20.35;;;;;;;0.25;72.62;99475.93;120043;1151;104459;-71
2021/01/10 01:05:09;;;;;;;49.73;20.97;;;;;;;0.27;72.95;99468.91;119881;1151;104461;-70
2021/01/10 01:07:36;;;;;;;43.80;19.93;;;;;;;0.30;72.89;99487.15;119976;1151;104449;-71
2021/01/10 01:10:04;;;;;;;41.83;19.63;;;;;;;0.31;72.59;99474.91;119802;1151;104399;-72
2021/01/10 01:12:31;;;;;;;40.80;18.50;;;;;;;0.28;72.62;99470.62;119791;1151;104508;-72
2021/01/10 01:14:59;;;;;;;42.33;19.63;;;;;;;0.23;72.82;99478.56;120122;1151;104391;-71
2021/01/10 01:17:26;;;;;;;44.87;20.97;;;;;;;0.22;72.69;99473.38;119943;1151;104468;-72
2021/01/10 01:19:54;;;;;;;43.00;20.43;;;;;;;0.18;73.00;99469.99;119776;1151;104463;-69
2021/01/10 01:22:21;;;;;;;41.60;21.12;;;;;;;0.18;73.01;99469.11;119898;1151;104454;-71
2021/01/10 01:24:48;;;;;;;39.53;16.60;;;;;;;0.14;72.65;99463.95;119887;1152;104564;-72
2021/01/10 01:27:16;;;;;;;38.17;17.80;;;;;;;0.09;72.24;99478.05;119832;1153;104763;-72
2021/01/10 01:29:44;;;;;;;44.00;20.97;;;;;;;0.05;72.62;99466.78;119979;1151;104378;-71
2021/01/10 01:32:11;;;;;;;40.97;20.20;;;;;;;0.07;73.07;99471.98;120011;1152;104464;-72
2021/01/10 01:34:39;;;;;;;41.40;18.93;;;;;;;0.09;72.90;99476.27;119895;1152;104380;-71
2021/01/10 01:37:06;;;;;;;39.60;19.10;;;;;;;0.10;72.67;99482.38;119849;1153;104442;-71
2021/01/10 01:39:33;;;;;;;44.50;20.85;;;;;;;0.07;72.49;99487.69;119826;1151;104378;-71
2021/01/10 01:42:02;;;;;;;40.13;19.60;;;;;;;0.08;72.60;99482.41;119864;1151;104367;-72
2021/01/10 01:44:29;;;;;;;40.50;20.10;;;;;;;0.06;72.91;99478.96;119857;1151;104502;-71
2021/01/10 01:46:56;;;;;;;41.43;20.33;;;;;;;0.03;72.61;99479.03;119836;1153;104362;-72
2021/01/10 01:49:24;;;;;;;42.00;20.27;;;;;;;-0.02;72.86;99486.15;119936;1151;104385;-71
2021/01/10 01:51:53;;;;;;;37.83;18.90;;;;;;;-0.08;72.69;99478.44;119901;1151;104851;-71
2021/01/10 01:54:21;;;;;;;43.30;21.47;;;;;;;-0.10;72.36;99485.45;119895;1154;104399;-73
2021/01/10 01:56:48;;;;;;;43.50;19.77;;;;;;;-0.06;72.91;99493.19;121799;1151;102464;-73
2021/01/10 01:59:15;;;;;;;43.20;21.57;;;;;;;-0.06;72.64;99487.11;121743;1151;102158;-73
2021/01/10 02:01:43;;;;;;;44.70;21.70;;;;;;;-0.04;72.46;99487.94;121817;1151;102450;-73
2021/01/10 02:04:27;;;;;;;39.92;18.80;;;;;;;-0.03;72.30;99487.05;121827;1152;102025;-73
2021/01/10 02:07:28;;;;;;;43.25;20.15;;;;;;;-0.03;72.98;99485.27;122183;1151;102191;-72
2021/01/10 02:10:16;;;;;;;37.30;17.97;;;;;;;-0.01;72.67;99478.25;122226;1151;102185;-71
2021/01/10 02:12:51;;;;;;;41.57;18.80;;;;;;;0.02;72.96;99477.31;121478;1151;102575;-72
2021/01/10 02:15:25;;;;;;;40.93;19.63;;;;;;;0.06;72.79;99480.73;121730;1151;104503;-71
2021/01/10 02:17:56;;;;;;;37.87;17.70;;;;;;;0.07;72.93;99480.68;119907;1153;104524;-72
2021/01/10 02:20:34;;;;;;;44.17;21.17;;;;;;;0.10;72.35;99485.84;120078;1151;104488;-71
2021/01/10 02:23:08;;;;;;;36.40;18.05;;;;;;;0.08;72.58;99478.95;119908;1153;104388;-72
2021/01/10 02:25:41;;;;;;;36.53;16.83;;;;;;;0.05;72.54;99484.24;119902;1153;104432;-72
2021/01/10 02:28:09;;;;;;;38.23;19.10;;;;;;;0.04;72.54;99483.37;120542;1151;104355;-71
2021/01/10 02:30:42;;;;;;;39.70;17.03;;;;;;;0.01;72.14;99477.36;120020;1153;104353;-71
2021/01/10 02:33:20;;;;;;;31.60;14.68;;;;;;;-0.01;72.56;99480.02;119904;1151;104878;-71
2021/01/10 02:35:50;;;;;;;36.27;16.30;;;;;;;-0.06;72.27;99481.88;120519;1151;104838;-72
2021/01/10 02:38:43;;;;;;;37.77;17.97;;;;;;;-0.11;72.59;99479.34;119889;1151;104481;-73
2021/01/10 02:41:19;;;;;;;37.73;17.43;;;;;;;-0.11;72.60;99478.50;119837;1151;104423;-71
2021/01/10 02:44:20;;;;;;;32.67;14.90;;;;;;;-0.11;72.86;99484.58;119792;1151;104426;-72
2021/01/10 02:46:51;;;;;;;35.75;15.05;;;;;;;-0.13;72.25;99486.36;120848;1151;104873;-72
2021/01/10 02:49:22;;;;;;;34.60;14.37;;;;;;;-0.13;72.89;99482.91;120305;1151;104352;-71
2021/01/10 02:51:50;;;;;;;32.53;14.37;;;;;;;-0.15;72.58;99480.31;120044;1151;104458;-71
2021/01/10 02:54:19;;;;;;;37.80;17.47;;;;;;;-0.14;72.28;99481.18;119887;1151;104398;-72
2021/01/10 02:57:02;;;;;;;36.73;16.57;;;;;;;-0.12;72.71;99482.86;119938;1151;104397;-69
2021/01/10 02:59:36;;;;;;;33.17;14.93;;;;;;;-0.11;72.40;99481.12;119894;1151;104458;-72
2021/01/10 03:02:09;;;;;;;37.10;15.33;;;;;;;-0.10;72.75;99483.69;119871;1151;104450;-69
2021/01/10 03:04:37;;;;;;;36.13;17.13;;;;;;;-0.09;72.38;99489.79;119971;1151;104455;-71
2021/01/10 03:07:06;;;;;;;33.63;15.57;;;;;;;-0.05;72.17;99491.45;119884;1151;104594;-71
2021/01/10 03:09:33;;;;;;;31.50;14.37;;;;;;;-0.07;72.77;99494.08;120497;1151;104870;-72
2021/01/10 03:12:25;;;;;;;33.27;15.03;;;;;;;-0.08;72.37;99494.97;119895;1151;104378;-72
2021/01/10 03:14:55;;;;;;;29.60;14.03;;;;;;;-0.08;72.39;99500.20;119779;1151;104450;-72
2021/01/10 03:17:44;;;;;;;33.67;15.47;;;;;;;-0.10;72.69;99501.98;119940;1151;104487;-71
2021/01/10 03:20:22;;;;;;;33.90;14.13;;;;;;;-0.14;72.61;99496.88;119885;1153;104502;-70
2021/01/10 03:22:53;;;;;;;31.37;13.33;;;;;;;-0.15;72.38;99493.38;120368;1151;103273;-73
2021/01/10 03:25:23;;;;;;;29.23;12.93;;;;;;;-0.18;72.51;99499.55;119970;1152;104352;-73
2021/01/10 03:27:50;;;;;;;31.80;14.90;;;;;;;-0.20;71.98;99493.49;120098;1153;104358;-73
2021/01/10 03:30:21;;;;;;;28.03;13.73;;;;;;;-0.24;72.18;99506.67;119985;1152;104359;-73
2021/01/10 03:32:49;;;;;;;28.60;13.20;;;;;;;-0.30;72.24;99502.42;120063;1152;104522;-74
2021/01/10 03:35:17;;;;;;;29.23;14.53;;;;;;;-0.26;72.50;99505.84;119864;1153;104359;-75
2021/01/10 03:37:45;;;;;;;29.53;13.03;;;;;;;-0.23;72.22;99503.17;120127;1153;104825;-72
2021/01/10 03:40:16;;;;;;;30.67;13.00;;;;;;;-0.22;72.26;99505.73;119859;1153;104396;-72
2021/01/10 03:42:43;;;;;;;31.43;14.37;;;;;;;-0.22;72.63;99502.28;119828;1153;104360;-72
2021/01/10 03:45:13;;;;;;;29.70;14.45;;;;;;;-0.22;72.02;99507.51;119845;1151;104497;-71
2021/01/10 03:47:43;;;;;;;30.40;13.60;;;;;;;-0.20;72.31;99509.18;119844;1153;104628;-73
2021/01/10 03:50:10;;;;;;;28.10;11.93;;;;;;;-0.20;72.60;99505.69;119888;1151;104426;-72
2021/01/10 03:52:38;;;;;;;30.77;14.70;;;;;;;-0.23;72.58;99504.02;119925;1153;104440;-72
2021/01/10 03:55:09;;;;;;;30.33;13.33;;;;;;;-0.24;72.28;99506.67;120049;1152;104361;-72
2021/01/10 03:57:40;;;;;;;29.87;13.77;;;;;;;-0.24;72.02;99504.06;119909;1152;104358;-72
2021/01/10 04:00:10;;;;;;;33.53;15.00;;;;;;;-0.23;71.87;99509.25;119893;1154;104407;-72
2021/01/10 04:02:40;;;;;;;33.03;14.70;;;;;;;-0.22;72.66;99512.73;119930;1152;104502;-72
2021/01/10 04:05:12;;;;;;;30.73;14.27;;;;;;;-0.20;72.08;99514.41;119974;1152;104777;-71
2021/01/10 04:07:39;;;;;;;28.83;13.33;;;;;;;-0.19;71.85;99521.36;120095;1152;104860;-71
2021/01/10 04:10:06;;;;;;;31.53;14.10;;;;;;;-0.20;72.09;99521.37;119917;1153;104493;-70
2021/01/10 04:12:33;;;;;;;35.70;15.00;;;;;;;-0.22;72.12;99521.42;120077;1153;104457;-71
2021/01/10 04:15:00;;;;;;;31.48;15.10;;;;;;;-0.20;72.26;99521.37;120066;1154;104462;-71
2021/01/10 04:17:30;;;;;;;32.17;13.73;;;;;;;-0.21;72.30;99519.69;119970;1153;104767;-70
2021/01/10 04:19:59;;;;;;;29.57;15.33;;;;;;;-0.20;72.41;99529.22;120041;1154;104584;-70
2021/01/10 04:22:28;;;;;;;31.73;14.00;;;;;;;-0.20;72.20;99523.99;119924;1154;104564;-74
2021/01/10 04:24:55;;;;;;;29.60;13.63;;;;;;;-0.21;72.41;99528.37;119985;1152;104358;-73
2021/01/10 04:27:22;;;;;;;30.60;13.50;;;;;;;-0.22;72.52;99528.42;120122;1151;104464;-74
2021/01/10 04:29:53;;;;;;;31.65;14.60;;;;;;;-0.23;71.83;99514.47;119903;1153;104361;-72
2021/01/10 04:32:21;;;;;;;33.27;16.00;;;;;;;-0.24;72.03;99523.21;120043;1153;104463;-73
2021/01/10 04:34:49;;;;;;;27.67;13.00;;;;;;;-0.21;72.37;99520.53;120606;1153;104642;-72
2021/01/10 04:37:16;;;;;;;33.20;15.00;;;;;;;-0.22;71.76;99518.81;119860;1153;104812;-72
2021/01/10 04:39:43;;;;;;;32.03;14.43;;;;;;;-0.22;71.71;99517.97;119872;1151;104462;-72
2021/01/10 04:42:14;;;;;;;28.90;13.47;;;;;;;-0.22;72.25;99517.97;119855;1153;104458;-73
2021/01/10 04:44:43;;;;;;;34.57;14.40;;;;;;;-0.25;71.84;99524.10;121065;1149;104365;-72
2021/01/10 04:47:12;;;;;;;34.53;15.63;;;;;;;-0.22;72.49;99521.42;119911;1151;104499;-71
2021/01/10 04:49:40;;;;;;;33.77;14.93;;;;;;;-0.20;72.47;99519.64;119873;1151;104352;-72
2021/01/10 04:52:08;;;;;;;31.13;13.20;;;;;;;-0.20;72.21;99513.53;119846;1151;104381;-69
2021/01/10 04:54:40;;;;;;;32.57;14.13;;;;;;;-0.20;72.27;99516.15;119946;1151;104487;-70
2021/01/10 04:57:11;;;;;;;27.93;12.07;;;;;;;-0.21;71.68;99515.30;119915;1151;103713;-72
2021/01/10 04:59:46;;;;;;;31.37;14.10;;;;;;;-0.23;72.12;99521.47;119815;1152;104357;-72
2021/01/10 05:02:23;;;;;;;30.23;13.30;;;;;;;-0.26;72.07;99517.16;119990;1151;104355;-73
2021/01/10 05:04:51;;;;;;;30.37;13.73;;;;;;;-0.26;72.11;99518.92;119945;1153;104402;-71
2021/01/10 05:07:18;;;;;;;28.27;13.13;;;;;;;-0.29;72.19;99516.37;119863;1151;104499;-72
2021/01/10 05:09:46;;;;;;;27.47;12.23;;;;;;;-0.32;72.23;99519.89;119809;1151;104449;-72
2021/01/10 05:12:16;;;;;;;30.97;13.37;;;;;;;-0.32;71.80;99519.89;120839;1153;103443;-74
2021/01/10 05:14:43;;;;;;;27.67;12.23;;;;;;;-0.29;72.20;99518.98;120633;1152;104380;-73
2021/01/10 05:17:21;;;;;;;29.82;11.65;;;;;;;-0.28;72.19;99518.94;120146;1153;104416;-71
2021/01/10 05:19:52;;;;;;;29.67;13.00;;;;;;;-0.29;72.26;99511.98;121161;1151;104346;-74
2021/01/10 05:22:20;;;;;;;26.87;11.20;;;;;;;-0.27;72.30;99520.66;120880;1151;104380;-74
2021/01/10 05:24:48;;;;;;;27.87;12.27;;;;;;;-0.26;72.32;99513.69;119973;1154;104452;-73
2021/01/10 05:27:17;;;;;;;26.05;10.60;;;;;;;-0.24;72.16;99512.75;119796;1153;104429;-73
2021/01/10 05:29:45;;;;;;;25.13;10.17;;;;;;;-0.23;72.12;99524.09;119947;1153;104466;-73
2021/01/10 05:32:12;;;;;;;25.40;11.83;;;;;;;-0.27;72.17;99515.43;119838;1153;104417;-71
2021/01/10 05:34:39;;;;;;;27.13;11.37;;;;;;;-0.27;71.87;99511.97;119797;1153;104426;-70
2021/01/10 05:37:14;;;;;;;27.15;12.30;;;;;;;-0.26;71.74;99517.16;119842;1153;104522;-72
2021/01/10 05:39:45;;;;;;;30.17;15.23;;;;;;;-0.24;72.14;99520.59;121075;1151;104393;-71
2021/01/10 05:42:13;;;;;;;30.73;12.83;;;;;;;-0.20;71.69;99521.37;119833;1153;104460;-74
2021/01/10 05:44:40;;;;;;;28.17;11.93;;;;;;;-0.22;71.65;99518.81;119934;1152;104451;-74
2021/01/10 05:47:18;;;;;;;29.47;11.70;;;;;;;-0.22;72.04;99525.81;119801;1151;104500;-73
2021/01/10 05:49:53;;;;;;;27.20;11.73;;;;;;;-0.20;71.86;99523.99;119779;1153;104574;-72
2021/01/10 05:52:22;;;;;;;27.20;12.43;;;;;;;-0.22;72.03;99521.42;119763;1153;104439;-72
2021/01/10 05:54:54;;;;;;;31.87;13.40;;;;;;;-0.24;72.10;99519.75;119797;1151;105232;-71
2021/01/10 05:57:26;;;;;;;27.17;9.80;;;;;;;-0.23;71.72;99519.70;119924;1151;104399;-72
2021/01/10 05:59:55;;;;;;;29.63;12.57;;;;;;;-0.23;71.87;99521.47;119831;1151;104457;-71
2021/01/10 06:02:36;;;;;;;29.53;12.83;;;;;;;-0.21;71.75;99528.37;119827;1151;104452;-72
2021/01/10 06:05:08;;;;;;;27.87;10.97;;;;;;;-0.19;71.66;99523.98;119781;1151;104457;-71
2021/01/10 06:07:35;;;;;;;34.53;14.83;;;;;;;-0.22;72.06;99531.04;119871;1151;104348;-72
2021/01/10 06:10:04;;;;;;;27.97;13.57;;;;;;;-0.22;71.36;99537.11;120040;1149;104384;-72
2021/01/10 06:12:31;;;;;;;29.73;13.70;;;;;;;-0.19;71.95;99529.20;120062;1151;104452;-72
2021/01/10 06:15:16;;;;;;;30.37;13.40;;;;;;;-0.19;71.71;99528.33;119898;1151;104522;-71
2021/01/10 06:17:48;;;;;;;34.27;14.53;;;;;;;-0.19;71.95;99537.05;120937;1150;104384;-71
2021/01/10 06:20:27;;;;;;;27.90;12.10;;;;;;;-0.16;71.56;99534.38;120280;1151;104355;-71
2021/01/10 06:22:56;;;;;;;29.47;13.30;;;;;;;-0.15;71.70;99535.22;119855;1151;104898;-71
2021/01/10 06:25:29;;;;;;;29.93;13.43;;;;;;;-0.17;71.49;99532.66;119886;1151;104377;-71
2021/01/10 06:28:10;;;;;;;27.37;12.30;;;;;;;-0.19;71.98;99534.44;120311;1151;104920;-71
2021/01/10 06:30:47;;;;;;;28.70;13.10;;;;;;;-0.21;71.27;99543.22;119765;1152;104444;-72
2021/01/10 06:33:27;;;;;;;29.43;14.13;;;;;;;-0.22;72.01;99537.11;120794;1151;104375;-71
2021/01/10 06:36:02;;;;;;;29.33;13.10;;;;;;;-0.22;71.44;99541.50;119816;1152;104377;-71
2021/01/10 06:38:37;;;;;;;28.63;12.70;;;;;;;-0.21;71.06;99548.45;119832;1153;104354;-70
2021/01/10 06:41:40;;;;;;;29.20;13.33;;;;;;;-0.18;71.16;99550.97;119876;1153;104606;-71
2021/01/10 06:44:08;;;;;;;31.93;13.50;;;;;;;-0.18;71.75;99557.08;119709;1152;107137;-70
2021/01/10 06:46:35;;;;;;;33.27;15.47;;;;;;;-0.17;71.61;99560.53;121823;1152;102825;-71
2021/01/10 06:49:03;;;;;;;32.70;14.70;;;;;;;-0.18;71.11;99557.08;121967;1151;102115;-71
2021/01/10 06:51:32;;;;;;;32.97;14.23;;;;;;;-0.14;71.35;99565.70;121929;1151;102209;-71
2021/01/10 06:54:04;;;;;;;32.50;14.57;;;;;;;-0.11;71.32;99572.64;121685;1149;104879;-70
2021/01/10 06:56:32;;;;;;;28.70;13.63;;;;;;;-0.10;71.78;99574.37;120113;1152;104490;-70
2021/01/10 06:59:21;;;;;;;33.90;13.80;;;;;;;-0.09;71.30;99576.94;119995;1151;104886;-71
2021/01/10 07:01:47;;;;;;;30.77;13.80;;;;;;;-0.08;71.08;99581.27;119928;1151;104353;-71
2021/01/10 07:04:16;;;;;;;30.17;14.03;;;;;;;-0.09;71.18;99578.70;119960;1153;104357;-71
2021/01/10 07:06:53;;;;;;;33.50;14.33;;;;;;;-0.08;71.35;99581.27;120098;1151;104502;-69
2021/01/10 07:09:21;;;;;;;28.50;13.27;;;;;;;-0.07;71.51;99584.77;119991;1151;104866;-71
2021/01/10 07:11:50;;;;;;;31.87;14.90;;;;;;;-0.10;71.39;99585.67;119968;1151;104427;-70
2021/01/10 07:14:17;;;;;;;31.33;14.40;;;;;;;-0.10;71.21;99582.21;120040;1151;104426;-71
2021/01/10 07:16:45;;;;;;;30.43;13.10;;;;;;;-0.08;71.23;99589.12;119965;1151;104902;-70
2021/01/10 07:19:14;;;;;;;35.77;15.87;;;;;;;-0.09;71.54;99581.32;120012;1151;104397;-70
2021/01/10 07:21:49;;;;;;;35.93;17.20;;;;;;;-0.10;71.45;99588.29;119976;1151;104461;-70
2021/01/10 07:24:16;;;;;;;37.00;16.07;;;;;;;-0.07;71.53;99590.00;120042;1151;104895;-70
2021/01/10 07:26:51;;;;;;;37.27;17.00;;;;;;;-0.05;71.21;99594.29;119982;1151;104452;-69
2021/01/10 07:29:44;;;;;;;36.20;17.20;;;;;;;-0.01;71.20;99598.56;120020;1151;104361;-71
2021/01/10 07:32:14;;;;;;;40.93;18.43;;;;;;;0.02;71.26;99599.39;120038;1151;104471;-71
2021/01/10 07:34:44;;;;;;;33.23;15.13;;;;;;;0.03;71.25;99604.58;120011;1151;104458;-70
2021/01/10 07:37:24;;;;;;;36.80;17.43;;;;;;;0.04;71.56;99606.30;120047;1151;104439;-72
2021/01/10 07:39:53;;;;;;;36.83;18.00;;;;;;;0.05;71.28;99608.03;120002;1153;104454;-70
2021/01/10 07:42:23;;;;;;;37.47;17.57;;;;;;;0.05;71.65;99609.80;120014;1152;104460;-70
2021/01/10 07:44:57;;;;;;;35.57;17.73;;;;;;;0.05;71.71;99617.64;120007;1152;104598;-71
2021/01/10 07:47:29;;;;;;;38.70;17.70;;;;;;;0.07;71.41;99608.86;120043;1153;104567;-72
2021/01/10 07:50:01;;;;;;;39.95;18.67;;;;;;;0.05;70.96;99602.80;120037;1151;104459;-69
2021/01/10 07:52:52;;;;;;;40.17;19.23;;;;;;;0.07;71.10;99606.24;120060;1151;104499;-70
2021/01/10 07:55:19;;;;;;;39.03;19.10;;;;;;;0.08;71.56;99613.20;119967;1151;104886;-69
2021/01/10 07:58:00;;;;;;;44.00;20.00;;;;;;;0.07;71.55;99606.24;119877;1151;104598;-69
2021/01/10 08:00:31;;;;;;;42.80;20.40;;;;;;;0.09;71.41;99608.84;119883;1151;104403;-69
2021/01/10 08:03:07;;;;;;;43.15;19.95;;;;;;;0.10;70.95;99603.56;119950;1151;104467;-68
2021/01/10 08:05:41;;;;;;;44.07;20.50;;;;;;;0.11;71.19;99613.13;119904;1152;104455;-69
2021/01/10 08:08:13;;;;;;;42.30;19.97;;;;;;;0.09;71.18;99609.69;119998;1153;104462;-69
2021/01/10 08:10:50;;;;;;;47.50;22.97;;;;;;;0.03;70.66;99609.81;119915;1150;105168;-69
2021/01/10 08:13:27;;;;;;;51.67;24.53;;;;;;;0.01;70.92;99608.98;119928;1151;104380;-68
2021/01/10 08:15:58;;;;;;;50.23;24.10;;;;;;;0.03;71.63;99614.20;119940;1151;104472;-70
2021/01/10 08:18:33;;;;;;;49.30;24.47;;;;;;;0.05;71.36;99612.41;119845;1151;104397;-69
2021/01/10 08:21:03;;;;;;;50.30;24.77;;;;;;;0.12;71.28;99616.62;119881;1151;104381;-71
2021/01/10 08:23:31;;;;;;;47.20;24.20;;;;;;;0.16;71.26;99618.30;119830;1151;104868;-69
2021/01/10 08:26:10;;;;;;;50.77;25.10;;;;;;;0.19;71.15;99619.97;119928;1151;104430;-72
2021/01/10 08:28:42;;;;;;;56.07;26.07;;;;;;;0.25;71.03;99625.07;119923;1151;104458;-72
2021/01/10 08:31:12;;;;;;;50.00;25.17;;;;;;;0.31;71.08;99629.30;119861;1149;104349;-72
2021/01/10 08:33:40;;;;;;;47.50;23.00;;;;;;;0.36;71.26;99628.33;119915;1151;104379;-72
2021/01/10 08:36:26;;;;;;;50.40;25.70;;;;;;;0.42;71.19;99620.31;119880;1151;104583;-72
2021/01/10 08:38:59;;;;;;;49.63;26.33;;;;;;;0.48;71.14;99623.70;119766;1151;104430;-72
2021/01/10 08:41:28;;;;;;;39.03;19.67;;;;;;;0.51;70.79;99631.48;119769;1151;104423;-71
2021/01/10 08:44:02;;;;;;;51.07;24.57;;;;;;;0.54;71.13;99632.29;119762;1152;104355;-72
2021/01/10 08:46:32;;;;;;;51.97;26.80;;;;;;;0.62;71.32;99633.84;119837;1153;104391;-70
2021/01/10 08:49:00;;;;;;;56.43;27.17;;;;;;;0.68;71.48;99631.09;119834;1152;104357;-72
2021/01/10 08:51:58;;;;;;;58.80;30.40;;;;;;;0.72;71.02;99635.36;119787;1152;104349;-71
2021/01/10 08:54:27;;;;;;;54.37;27.00;;;;;;;0.78;71.39;99632.61;119809;1151;104392;-71
2021/01/10 08:56:59;;;;;;;58.77;30.30;;;;;;;0.82;71.05;99631.64;119844;1152;104570;-73
2021/01/10 08:59:38;;;;;;;63.67;32.30;;;;;;;0.89;71.27;99640.20;119988;1152;104388;-71
2021/01/10 09:02:10;;;;;;;66.23;33.60;;;;;;;0.97;71.45;99637.42;119996;1154;104474;-71
2021/01/10 09:04:44;;;;;;;60.90;30.85;;;;;;;1.03;71.25;99634.63;119976;1152;104451;-70
2021/01/10 09:07:12;;;;;;;64.00;31.67;;;;;;;1.08;71.07;99635.38;120009;1153;104570;-70
2021/01/10 09:10:00;;;;;;;60.00;30.90;;;;;;;1.16;71.25;99632.59;120107;1153;104380;-72
2021/01/10 09:12:46;;;;;;;62.40;29.10;;;;;;;1.22;71.10;99634.19;120040;1151;104396;-71
2021/01/10 09:15:18;;;;;;;52.60;26.13;;;;;;;1.27;70.88;99635.78;120047;1153;104384;-71
2021/01/10 09:18:03;;;;;;;60.30;31.10;;;;;;;1.33;71.37;99629.54;119975;1152;104457;-72
2021/01/10 09:20:33;;;;;;;58.00;28.83;;;;;;;1.41;71.05;99627.59;120062;1151;104474;-71
2021/01/10 09:23:08;;;;;;;58.77;29.33;;;;;;;1.54;70.93;99635.98;120000;1151;104537;-71
2021/01/10 09:25:36;;;;;;;56.50;27.50;;;;;;;1.70;71.18;99625.06;119991;1152;104457;-70
2021/01/10 09:28:14;;;;;;;47.67;23.83;;;;;;;1.82;70.63;99631.76;120059;1151;104544;-70
2021/01/10 09:30:54;;;;;;;53.70;26.53;;;;;;;2.00;70.96;99625.98;120016;1152;104389;-71
2021/01/10 09:33:27;;;;;;;51.93;26.83;;;;;;;2.13;71.20;99630.88;120031;1153;104375;-71
2021/01/10 09:35:57;;;;;;;53.87;27.63;;;;;;;2.24;70.62;99631.44;119983;1154;104371;-68
2021/01/10 09:38:28;;;;;;;56.43;27.50;;;;;;;2.34;70.93;99627.61;119972;1151;104374;-75
2021/01/10 09:41:10;;;;;;;48.60;24.90;;;;;;;2.47;70.65;99630.72;119983;1152;104441;-72
2021/01/10 09:43:38;;;;;;;50.53;25.43;;;;;;;2.61;70.92;99630.32;119976;1152;104375;-69
2021/01/10 09:46:26;;;;;;;54.97;25.43;;;;;;;2.75;71.17;99622.00;119906;1153;104486;-70
2021/01/10 09:49:06;;;;;;;53.03;25.93;;;;;;;2.88;70.66;99621.59;119936;1153;104483;-69
2021/01/10 09:51:39;;;;;;;48.77;24.90;;;;;;;2.95;70.60;99620.48;119911;1151;104564;-69
2021/01/10 09:54:19;;;;;;;55.20;28.47;;;;;;;2.88;70.85;99622.47;119939;1154;104385;-69
2021/01/10 09:56:50;;;;;;;60.10;31.10;;;;;;;2.83;70.41;99625.25;119912;1154;104405;-68
2021/01/10 09:59:36;;;;;;;58.33;29.03;;;;;;;2.87;70.55;99622.50;119956;1153;104380;-69
2021/01/10 10:02:24;;;;;;;61.60;31.85;;;;;;;2.85;70.38;99616.47;119915;1153;104376;-69
2021/01/10 10:05:07;;;;;;;58.67;31.37;;;;;;;2.88;70.85;99617.21;119956;1151;104452;-69
2021/01/10 10:07:42;;;;;;;62.33;32.23;;;;;;;2.93;70.87;99622.30;119940;1151;104476;-70
2021/01/10 10:10:28;;;;;;;63.50;31.50;;;;;;;2.98;70.15;99623.02;119990;1152;104538;-69
2021/01/10 10:13:08;;;;;;;61.87;30.77;;;;;;;2.89;70.73;99632.07;119913;1153;104439;-70
2021/01/10 10:15:51;;;;;;;55.33;29.80;;;;;;;2.82;70.68;99623.53;120031;1152;104487;-70
2021/01/10 10:18:31;;;;;;;63.43;34.57;;;;;;;2.78;70.74;99626.29;120049;1151;104401;-70
2021/01/10 10:21:00;;;;;;;59.10;31.57;;;;;;;2.89;71.23;99625.94;119948;1151;104451;-70
2021/01/10 10:23:27;;;;;;;65.93;34.23;;;;;;;2.95;71.09;99625.75;119945;1151;104393;-76
2021/01/10 10:25:54;;;;;;;57.78;31.12;;;;;;;2.98;70.18;99626.52;119952;1153;104417;-70
2021/01/10 10:28:22;;;;;;;58.77;28.20;;;;;;;2.91;70.29;99621.50;119824;1153;104368;-71
2021/01/10 10:30:49;;;;;;;59.77;30.60;;;;;;;2.83;70.82;99619.13;119980;1153;104371;-70
2021/01/10 10:33:17;;;;;;;57.17;30.30;;;;;;;2.76;70.61;99625.48;120007;1153;104480;-70
2021/01/10 10:35:44;;;;;;;54.40;27.63;;;;;;;2.75;70.18;99627.26;119917;1151;104515;-70
2021/01/10 10:38:11;;;;;;;52.70;26.17;;;;;;;2.72;70.17;99629.98;119979;1153;104783;-70
2021/01/10 10:40:38;;;;;;;56.88;26.97;;;;;;;2.74;70.67;99624.66;120047;1151;104449;-70
2021/01/10 10:43:06;;;;;;;54.00;27.13;;;;;;;2.72;70.17;99623.85;120073;1151;104382;-70
2021/01/10 10:45:33;;;;;;;52.20;27.57;;;;;;;2.71;70.34;99616.88;120105;1151;104502;-69
2021/01/10 10:48:00;;;;;;;49.38;25.17;;;;;;;2.75;69.54;99619.37;120121;1151;104423;-70
2021/01/10 10:50:27;;;;;;;50.23;23.90;;;;;;;2.81;70.12;99623.56;120015;1153;104454;-70
2021/01/10 10:52:54;;;;;;;57.27;28.00;;;;;;;2.88;69.74;99622.47;120043;1151;104375;-72
2021/01/10 10:55:25;;;;;;;49.65;25.10;;;;;;;2.87;69.92;99623.38;120118;1151;104452;-71
2021/01/10 10:57:53;;;;;;;50.10;23.77;;;;;;;2.82;70.23;99615.66;119997;1151;104449;-71
2021/01/10 11:00:20;;;;;;;51.48;24.25;;;;;;;2.81;69.56;99619.19;120000;1151;104399;-71
2021/01/10 11:02:50;;;;;;;50.90;25.10;;;;;;;2.89;69.96;99618.05;119996;1151;104462;-70
2021/01/10 11:05:17;;;;;;;49.47;24.83;;;;;;;2.91;69.99;99617.11;120001;1151;104377;-72
2021/01/10 11:07:44;;;;;;;48.93;23.80;;;;;;;2.95;69.66;99608.22;120078;1150;104474;-70
2021/01/10 11:10:12;;;;;;;46.13;23.67;;;;;;;3.00;69.97;99594.08;119927;1152;104490;-71
2021/01/10 11:12:39;;;;;;;53.95;26.55;;;;;;;3.01;70.08;99588.75;120184;1151;104433;-71
2021/01/10 11:15:08;;;;;;;60.00;28.25;;;;;;;2.95;69.55;99579.31;119953;1151;104475;-71
2021/01/10 11:17:37;;;;;;;49.67;24.03;;;;;;;2.97;69.48;99582.76;120041;1151;104471;-71
2021/01/10 11:20:06;;;;;;;48.03;24.73;;;;;;;3.01;69.71;99583.50;119993;1151;104464;-71
2021/01/10 11:22:35;;;;;;;51.63;24.77;;;;;;;3.07;70.07;99582.42;119960;1153;104948;-69
2021/01/10 11:25:04;;;;;;;48.53;25.00;;;;;;;3.08;70.10;99590.28;120038;1151;104375;-72
2021/01/10 11:27:31;;;;;;;45.97;22.23;;;;;;;3.12;69.90;99585.77;119994;1151;104387;-71